Time;durP1;ratioP1;P1;durP2;ratioP2;P2;SDS_P1;SDS_P2;PMS_P1;PMS_P2;Temp;Humidity;BMP_temperature;BMP_pressure;BME280_temperature;BME280_humidity;BME280_pressure;Samples;Min_cycle;Max_cycle;Signal;HPM_P1;HPM_P2
2021/09/29 00:01:22;;;;;;;14.23;10.20;;;15.40;99.90;;;;;;4992024;28;20501;-53
2021/09/29 00:03:49;;;;;;;15.13;10.17;;;15.50;99.90;;;;;;4991981;28;20451;-53
2021/09/29 00:06:18;;;;;;;19.07;12.23;;;15.50;99.90;;;;;;4991886;28;20481;-53
2021/09/29 00:08:45;;;;;;;20.40;13.17;;;15.60;99.90;;;;;;4991000;28;20529;-53
2021/09/29 00:11:12;;;;;;;23.10;12.80;;;15.50;99.90;;;;;;4991575;28;20542;-53
2021/09/29 00:13:38;;;;;;;17.53;11.60;;;15.60;99.90;;;;;;4991605;28;20501;-53
2021/09/29 00:16:06;;;;;;;17.50;11.67;;;15.60;99.90;;;;;;4991450;28;20948;-53
2021/09/29 00:18:33;;;;;;;19.80;11.67;;;15.40;99.90;;;;;;4987810;28;20470;-52
2021/09/29 00:21:00;;;;;;;18.70;11.67;;;15.40;99.90;;;;;;4991622;28;21066;-53
2021/09/29 00:23:28;;;;;;;18.30;12.40;;;15.30;99.90;;;;;;4992071;28;20454;-53
2021/09/29 00:25:55;;;;;;;17.60;11.67;;;15.30;99.90;;;;;;4986109;28;20900;-54
2021/09/29 00:28:22;;;;;;;20.73;11.60;;;15.30;99.90;;;;;;4980387;28;20951;-53
2021/09/29 00:31:01;;;;;;;20.80;12.87;;;15.40;99.90;;;;;;4986702;28;20485;-53
2021/09/29 00:33:28;;;;;;;22.57;11.90;;;15.40;99.90;;;;;;4989972;28;20480;-53
2021/09/29 00:35:55;;;;;;;18.23;11.53;;;15.50;99.90;;;;;;4991940;28;20446;-53
2021/09/29 00:38:22;;;;;;;18.17;11.93;;;15.30;99.90;;;;;;4991601;28;20536;-53
2021/09/29 00:40:51;;;;;;;20.50;12.70;;;15.30;99.90;;;;;;4990663;28;20450;-53
2021/09/29 00:43:18;;;;;;;18.70;11.90;;;15.20;99.90;;;;;;4983956;28;20456;-53
2021/09/29 00:45:45;;;;;;;19.00;13.00;;;15.10;99.90;;;;;;4994341;28;20883;-53
2021/09/29 00:48:12;;;;;;;17.60;11.67;;;15.10;99.90;;;;;;4994833;28;20540;-53
2021/09/29 00:50:38;;;;;;;19.00;11.70;;;15.20;99.90;;;;;;4995448;28;20508;-53
2021/09/29 00:53:06;;;;;;;19.43;12.70;;;15.20;99.90;;;;;;4995083;28;20450;-53
2021/09/29 00:55:34;;;;;;;18.50;12.33;;;15.10;99.90;;;;;;4994948;28;20454;-53
2021/09/29 00:58:03;;;;;;;20.00;12.80;;;15.00;99.90;;;;;;4994375;28;20481;-53
2021/09/29 01:00:30;;;;;;;16.00;10.10;;;15.00;99.90;;;;;;4993450;28;20940;-53
2021/09/29 01:02:57;;;;;;;17.90;11.20;;;15.00;99.90;;;;;;4990645;28;20454;-53
2021/09/29 01:05:24;;;;;;;15.80;10.60;;;15.00;99.90;;;;;;4994865;28;20442;-54
2021/09/29 01:07:56;;;;;;;13.77;9.30;;;15.00;99.90;;;;;;4994590;28;20529;-54
2021/09/29 01:10:32;;;;;;;17.37;10.17;;;15.00;99.90;;;;;;4994350;28;20454;-54
2021/09/29 01:13:08;;;;;;;17.27;10.10;;;15.00;99.90;;;;;;4991375;28;20883;-54
2021/09/29 01:15:44;;;;;;;14.07;9.57;;;15.00;99.90;;;;;;4993883;28;20454;-53
2021/09/29 01:18:14;;;;;;;13.73;9.00;;;15.00;99.90;;;;;;4994702;28;21042;-54
2021/09/29 01:20:45;;;;;;;16.90;9.93;;;15.10;99.90;;;;;;4993617;28;20454;-54
2021/09/29 01:23:26;;;;;;;12.70;8.43;;;15.00;99.90;;;;;;4994928;28;21006;-54
2021/09/29 01:25:58;;;;;;;16.13;9.60;;;15.00;99.90;;;;;;4994402;28;20442;-53
2021/09/29 01:28:33;;;;;;;13.93;8.87;;;15.00;99.90;;;;;;4994070;28;20490;-53
2021/09/29 01:31:02;;;;;;;15.37;9.50;;;15.00;99.90;;;;;;4993919;28;20454;-54
2021/09/29 01:33:31;;;;;;;14.07;10.23;;;15.00;99.90;;;;;;4992874;28;20455;-53
2021/09/29 01:35:58;;;;;;;16.77;10.47;;;14.90;99.90;;;;;;4993672;28;20952;-54
2021/09/29 01:38:27;;;;;;;10.50;7.90;;;14.70;99.90;;;;;;4994187;28;20521;-53
2021/09/29 01:40:54;;;;;;;12.73;8.90;;;14.70;99.90;;;;;;4993784;28;20508;-53
2021/09/29 01:43:21;;;;;;;14.03;9.97;;;14.90;99.90;;;;;;4994135;28;20450;-54
2021/09/29 01:45:50;;;;;;;14.17;9.77;;;14.80;99.90;;;;;;4993939;28;20451;-53
2021/09/29 01:48:18;;;;;;;15.07;10.33;;;14.80;99.90;;;;;;4992755;28;20486;-53
2021/09/29 01:50:46;;;;;;;17.30;11.10;;;14.70;99.90;;;;;;4980839;28;20446;-53
2021/09/29 01:53:14;;;;;;;17.73;10.40;;;14.70;99.90;;;;;;4993359;28;20458;-53
2021/09/29 01:55:42;;;;;;;14.20;10.03;;;14.70;99.90;;;;;;4993127;28;20509;-53
2021/09/29 01:58:10;;;;;;;15.33;9.33;;;14.70;99.90;;;;;;4992773;28;20478;-54
2021/09/29 02:00:38;;;;;;;16.17;9.83;;;14.80;99.90;;;;;;4993215;28;20501;-53
2021/09/29 02:03:06;;;;;;;13.33;8.87;;;14.90;99.90;;;;;;4993480;28;20959;-54
2021/09/29 02:05:37;;;;;;;15.97;10.97;;;15.00;99.90;;;;;;4994304;28;20516;-53
2021/09/29 02:08:07;;;;;;;19.20;11.93;;;15.00;99.90;;;;;;4993287;28;20490;-54
2021/09/29 02:10:34;;;;;;;19.07;10.10;;;15.00;99.90;;;;;;4993608;28;20450;-54
2021/09/29 02:13:01;;;;;;;17.57;11.33;;;15.00;99.90;;;;;;4993636;28;20509;-54
2021/09/29 02:15:30;;;;;;;15.90;10.87;;;15.10;99.90;;;;;;4993653;28;20983;-53
2021/09/29 02:17:57;;;;;;;17.93;11.90;;;15.10;99.90;;;;;;4993213;28;20466;-54
2021/09/29 02:20:26;;;;;;;22.03;12.70;;;15.10;99.90;;;;;;4990759;28;20450;-53
2021/09/29 02:22:53;;;;;;;19.27;11.97;;;15.10;99.90;;;;;;4985492;28;20456;-53
2021/09/29 02:25:20;;;;;;;18.97;11.90;;;15.10;99.90;;;;;;4992016;28;20458;-54
2021/09/29 02:27:47;;;;;;;20.63;12.30;;;15.10;99.90;;;;;;4993546;28;20565;-54
2021/09/29 02:30:15;;;;;;;19.67;12.23;;;15.10;99.90;;;;;;4993492;28;20618;-53
2021/09/29 02:32:42;;;;;;;19.70;13.13;;;15.10;99.90;;;;;;4992698;28;20450;-54
2021/09/29 02:35:11;;;;;;;21.20;12.67;;;15.10;99.90;;;;;;4993163;28;20512;-54
2021/09/29 02:37:39;;;;;;;21.60;12.60;;;15.10;99.90;;;;;;4975595;28;20518;-54
2021/09/29 02:40:08;;;;;;;19.93;12.53;;;15.00;99.90;;;;;;4974875;28;20467;-53
2021/09/29 02:42:35;;;;;;;20.43;12.87;;;15.10;99.90;;;;;;4992249;28;20454;-54
2021/09/29 02:45:03;;;;;;;19.03;11.83;;;15.10;99.90;;;;;;4992832;28;20447;-53
2021/09/29 02:47:30;;;;;;;24.43;14.13;;;15.10;99.90;;;;;;4992861;28;20490;-54
2021/09/29 02:49:57;;;;;;;25.27;13.57;;;15.10;99.90;;;;;;4993190;28;20454;-53
2021/09/29 02:52:24;;;;;;;21.20;12.97;;;15.10;99.90;;;;;;4987448;28;21001;-54
2021/09/29 02:54:52;;;;;;;22.97;12.77;;;15.10;99.90;;;;;;4977081;28;20451;-54
2021/09/29 02:57:19;;;;;;;20.97;13.30;;;15.20;99.90;;;;;;4992311;28;20474;-53
2021/09/29 02:59:46;;;;;;;22.47;13.50;;;15.20;99.90;;;;;;4992625;28;20447;-54
2021/09/29 03:02:13;;;;;;;24.17;13.50;;;15.10;99.90;;;;;;4992656;28;20528;-53
2021/09/29 03:04:40;;;;;;;23.13;13.90;;;15.10;99.90;;;;;;4992357;28;20940;-53
2021/09/29 03:07:07;;;;;;;21.73;11.87;;;15.00;99.90;;;;;;4992009;28;20533;-54
2021/09/29 03:09:34;;;;;;;26.70;14.00;;;15.00;99.90;;;;;;4991291;28;20450;-53
2021/09/29 03:12:03;;;;;;;23.23;14.10;;;15.00;99.90;;;;;;4992192;28;20447;-53
2021/09/29 03:14:30;;;;;;;21.30;13.43;;;15.00;99.90;;;;;;4983320;28;20455;-54
2021/09/29 03:16:57;;;;;;;23.80;14.63;;;15.10;99.90;;;;;;4973349;28;20984;-54
2021/09/29 03:19:24;;;;;;;22.47;13.97;;;15.00;99.90;;;;;;4980597;28;20525;-54
2021/09/29 03:21:51;;;;;;;22.97;13.93;;;15.00;99.90;;;;;;4980060;28;20559;-55
2021/09/29 03:24:20;;;;;;;24.57;14.80;;;15.00;99.90;;;;;;4992726;28;20505;-54
2021/09/29 03:26:48;;;;;;;27.50;14.43;;;15.00;99.90;;;;;;4977647;28;20530;-53
2021/09/29 03:29:17;;;;;;;21.70;13.90;;;14.90;99.90;;;;;;4991935;28;20443;-55
2021/09/29 03:31:44;;;;;;;23.77;13.87;;;15.10;99.90;;;;;;4992332;28;20520;-55
2021/09/29 03:34:11;;;;;;;22.00;13.83;;;15.00;99.90;;;;;;4991987;28;20447;-54
2021/09/29 03:36:39;;;;;;;24.67;14.93;;;15.10;99.90;;;;;;4975224;28;20945;-54
2021/09/29 03:39:06;;;;;;;22.67;14.90;;;15.10;99.90;;;;;;4977489;28;20442;-53
2021/09/29 03:41:37;;;;;;;25.10;14.53;;;15.00;99.90;;;;;;4988159;28;20451;-53
2021/09/29 03:44:05;;;;;;;28.87;15.30;;;14.80;99.90;;;;;;4981035;28;20887;-53
2021/09/29 03:46:33;;;;;;;25.90;15.60;;;14.80;99.90;;;;;;4992517;28;20504;-54
2021/09/29 03:49:02;;;;;;;25.07;14.67;;;14.70;99.90;;;;;;4991795;28;21004;-54
2021/09/29 03:51:29;;;;;;;25.20;15.80;;;14.70;99.90;;;;;;4987391;28;20895;-53
2021/09/29 03:53:56;;;;;;;26.77;15.07;;;14.80;99.90;;;;;;4973163;28;20506;-54
2021/09/29 03:56:23;;;;;;;28.03;15.33;;;15.00;99.90;;;;;;4984139;28;20463;-54
2021/09/29 04:01:20;;;;;;;23.83;14.40;;;15.00;99.90;;;;;;5029276;23;20931;-59
2021/09/29 04:03:49;;;;;;;27.63;14.77;;;14.90;99.90;;;;;;5012016;28;20935;-59
2021/09/29 04:06:16;;;;;;;27.47;14.70;;;14.90;99.90;;;;;;5002114;28;21015;-59
2021/09/29 04:08:43;;;;;;;22.50;12.90;;;14.80;99.90;;;;;;4993353;28;20490;-59
2021/09/29 04:11:11;;;;;;;24.07;14.57;;;14.70;99.90;;;;;;4992029;28;20520;-59
2021/09/29 04:13:38;;;;;;;21.17;13.90;;;14.70;99.90;;;;;;4996020;28;20464;-59
2021/09/29 04:16:05;;;;;;;21.77;14.03;;;14.70;99.90;;;;;;5001941;28;20447;-59
2021/09/29 04:18:33;;;;;;;22.30;13.70;;;14.90;99.90;;;;;;4999742;28;20517;-60
2021/09/29 04:21:01;;;;;;;20.10;12.13;;;14.80;99.90;;;;;;5015501;28;20523;-59
2021/09/29 04:23:28;;;;;;;24.23;14.43;;;14.90;99.90;;;;;;5015649;28;20465;-59
2021/09/29 04:25:55;;;;;;;24.80;12.00;;;14.90;99.90;;;;;;5015630;28;20453;-59
2021/09/29 04:28:22;;;;;;;19.77;12.63;;;14.90;99.90;;;;;;5015073;28;20485;-59
2021/09/29 04:30:49;;;;;;;19.50;12.80;;;14.90;99.90;;;;;;4996487;28;20478;-59
2021/09/29 04:33:17;;;;;;;19.70;12.90;;;14.90;99.90;;;;;;5005874;28;20457;-60
2021/09/29 04:35:44;;;;;;;21.97;13.17;;;14.90;99.90;;;;;;5015539;28;20527;-59
2021/09/29 04:38:12;;;;;;;19.67;12.97;;;14.90;99.90;;;;;;5013719;28;20446;-59
2021/09/29 04:40:39;;;;;;;23.70;12.10;;;14.80;99.90;;;;;;5014356;28;20496;-59
2021/09/29 04:43:07;;;;;;;20.37;12.80;;;14.70;99.90;;;;;;5007732;28;20454;-59
2021/09/29 04:45:34;;;;;;;19.10;12.87;;;14.70;99.90;;;;;;4998335;28;20450;-59
2021/09/29 04:48:03;;;;;;;23.53;13.73;;;14.70;99.90;;;;;;5008757;28;20500;-59
2021/09/29 04:50:30;;;;;;;25.73;14.40;;;14.60;99.90;;;;;;5017033;28;20544;-60
2021/09/29 04:52:57;;;;;;;25.90;14.80;;;14.60;99.90;;;;;;5016507;28;20536;-59
2021/09/29 04:55:30;;;;;;;21.50;13.57;;;14.60;99.90;;;;;;5007146;28;20513;-60
2021/09/29 04:57:57;;;;;;;22.00;13.63;;;14.60;99.90;;;;;;4995678;28;20533;-59
2021/09/29 05:00:24;;;;;;;22.27;13.30;;;14.60;99.90;;;;;;5009654;28;20488;-59
2021/09/29 05:02:51;;;;;;;15.60;10.90;;;14.60;99.90;;;;;;5009370;28;20454;-59
2021/09/29 05:05:18;;;;;;;18.83;10.77;;;14.70;99.90;;;;;;5006068;28;20513;-59
2021/09/29 05:07:49;;;;;;;18.37;10.43;;;14.70;99.90;;;;;;5009456;28;20989;-59
2021/09/29 05:10:24;;;;;;;16.03;10.23;;;14.90;99.90;;;;;;5014709;28;20472;-59
2021/09/29 05:12:54;;;;;;;12.67;9.33;;;14.90;99.90;;;;;;5014678;28;20452;-59
2021/09/29 05:15:22;;;;;;;13.97;9.27;;;14.90;99.90;;;;;;5005207;28;20465;-59
2021/09/29 05:17:49;;;;;;;13.37;8.80;;;15.00;99.90;;;;;;4997615;28;20542;-59
2021/09/29 05:20:16;;;;;;;12.37;9.03;;;15.00;99.90;;;;;;5003986;28;20465;-59
2021/09/29 05:22:43;;;;;;;13.63;8.70;;;15.00;99.90;;;;;;5012776;28;20503;-59
2021/09/29 05:25:11;;;;;;;12.17;8.93;;;14.90;99.90;;;;;;5007604;28;20507;-58
2021/09/29 05:27:38;;;;;;;13.40;8.90;;;14.80;99.90;;;;;;5013622;28;21317;-59
2021/09/29 05:30:14;;;;;;;14.13;9.00;;;14.80;99.90;;;;;;5002272;28;20486;-59
2021/09/29 05:32:42;;;;;;;13.27;9.27;;;14.70;99.90;;;;;;5004537;28;20451;-59
2021/09/29 05:35:10;;;;;;;12.20;8.20;;;14.70;99.90;;;;;;5008048;28;20533;-58
2021/09/29 05:37:37;;;;;;;11.83;8.40;;;14.60;99.90;;;;;;5009670;28;20465;-58
2021/09/29 05:40:04;;;;;;;10.43;7.43;;;14.60;99.90;;;;;;4996536;28;20467;-58
2021/09/29 05:42:31;;;;;;;11.97;8.10;;;14.70;99.90;;;;;;5005474;28;21001;-58
2021/09/29 05:44:58;;;;;;;12.00;7.67;;;14.70;99.90;;;;;;5006359;28;20891;-59
2021/09/29 05:47:27;;;;;;;12.70;8.63;;;14.60;99.90;;;;;;5005225;28;20449;-58
2021/09/29 05:49:54;;;;;;;10.27;7.77;;;14.60;99.90;;;;;;5013706;28;20474;-58
2021/09/29 05:52:21;;;;;;;17.40;9.27;;;14.50;99.90;;;;;;4999688;28;20846;-58
2021/09/29 05:54:48;;;;;;;12.73;8.90;;;14.50;99.90;;;;;;5007030;28;20951;-59
2021/09/29 05:57:16;;;;;;;11.70;8.00;;;14.50;99.90;;;;;;5013536;28;20453;-58
2021/09/29 05:59:43;;;;;;;13.30;9.30;;;14.60;99.90;;;;;;5006902;28;20548;-59
2021/09/29 06:02:11;;;;;;;10.83;7.77;;;14.60;99.90;;;;;;5003433;28;20461;-58
2021/09/29 06:04:41;;;;;;;9.87;7.43;;;14.60;99.90;;;;;;5008810;28;20480;-58
2021/09/29 06:07:10;;;;;;;9.00;6.57;;;14.80;99.90;;;;;;5004618;28;20449;-59
2021/09/29 06:09:39;;;;;;;15.10;8.07;;;14.80;99.90;;;;;;4993203;28;20490;-59
2021/09/29 06:12:06;;;;;;;11.13;7.00;;;14.70;99.90;;;;;;4994026;28;20552;-58
2021/09/29 06:14:34;;;;;;;8.83;7.03;;;14.70;99.90;;;;;;5001162;28;20532;-58
2021/09/29 06:17:11;;;;;;;13.10;10.40;;;14.70;99.90;;;;;;5001892;28;20459;-59
2021/09/29 06:19:40;;;;;;;9.07;7.60;;;14.70;99.90;;;;;;5002723;28;20965;-59
2021/09/29 06:22:07;;;;;;;15.80;7.07;;;14.70;99.90;;;;;;4994417;28;20964;-59
2021/09/29 06:24:34;;;;;;;7.77;6.17;;;14.60;99.90;;;;;;4999255;28;20464;-59
2021/09/29 06:27:01;;;;;;;12.93;7.43;;;14.70;99.90;;;;;;5005756;28;20449;-59
2021/09/29 06:29:28;;;;;;;8.67;6.00;;;14.60;99.90;;;;;;5011461;28;20493;-59
2021/09/29 06:31:56;;;;;;;9.97;7.00;;;14.60;99.90;;;;;;5011811;28;20507;-59
2021/09/29 06:34:23;;;;;;;7.97;6.37;;;14.70;99.90;;;;;;5008407;28;20453;-59
2021/09/29 06:36:52;;;;;;;8.37;6.53;;;14.70;99.90;;;;;;5011740;28;20511;-59
2021/09/29 06:39:20;;;;;;;11.10;7.00;;;14.70;99.90;;;;;;5010348;28;20474;-59
2021/09/29 06:41:47;;;;;;;9.23;7.60;;;14.80;99.90;;;;;;5010943;28;20454;-59
2021/09/29 06:44:14;;;;;;;13.93;7.97;;;14.80;99.90;;;;;;5012121;28;20502;-59
2021/09/29 06:46:41;;;;;;;8.80;6.60;;;14.70;99.90;;;;;;5005651;28;20458;-59
2021/09/29 06:49:09;;;;;;;11.30;7.10;;;14.60;99.90;;;;;;5001090;28;20489;-59
2021/09/29 06:51:36;;;;;;;11.60;6.63;;;14.70;99.90;;;;;;5009046;28;20507;-58
2021/09/29 06:54:05;;;;;;;7.27;6.50;;;14.70;99.90;;;;;;5004815;28;20458;-59
2021/09/29 06:56:32;;;;;;;8.45;7.10;;;14.70;99.90;;;;;;4989255;28;20484;-59
2021/09/29 06:59:01;;;;;;;12.43;8.30;;;14.70;99.90;;;;;;4979055;28;1141291;-60
2021/09/29 07:01:28;;;;;;;8.33;6.77;;;14.70;99.90;;;;;;4992619;28;20277;-59
2021/09/29 07:03:55;;;;;;;8.03;5.77;;;14.70;99.90;;;;;;4992878;28;20457;-59
2021/09/29 07:06:22;;;;;;;6.20;5.60;;;14.70;99.90;;;;;;4992774;28;20455;-59
2021/09/29 07:08:49;;;;;;;8.20;5.43;;;14.80;99.90;;;;;;5004222;28;20477;-59
2021/09/29 07:11:17;;;;;;;8.33;5.63;;;14.90;99.90;;;;;;5007458;28;20543;-59
2021/09/29 07:13:46;;;;;;;6.47;5.30;;;14.90;99.90;;;;;;5012108;28;20528;-59
2021/09/29 07:16:13;;;;;;;9.23;5.47;;;14.90;99.90;;;;;;5012408;28;20453;-59
2021/09/29 07:18:41;;;;;;;6.30;5.43;;;15.00;99.90;;;;;;5012423;28;20452;-59
2021/09/29 07:21:08;;;;;;;7.20;5.70;;;15.10;99.90;;;;;;5012064;28;20826;-59
2021/09/29 07:23:37;;;;;;;5.30;4.77;;;15.10;99.90;;;;;;5011683;28;20445;-59
2021/09/29 07:26:04;;;;;;;9.30;7.17;;;15.20;99.90;;;;;;4992412;28;20489;-59
2021/09/29 07:28:32;;;;;;;7.80;5.63;;;15.10;99.90;;;;;;5000060;28;20999;-59
2021/09/29 07:30:59;;;;;;;8.30;6.10;;;15.20;99.90;;;;;;4992340;28;20553;-59
2021/09/29 07:33:26;;;;;;;8.10;6.27;;;15.20;99.90;;;;;;4999932;28;20457;-59
2021/09/29 07:35:55;;;;;;;9.50;6.00;;;15.30;99.90;;;;;;5012036;28;20580;-59
2021/09/29 07:38:23;;;;;;;6.63;5.80;;;15.30;99.90;;;;;;5011915;28;20974;-59
2021/09/29 07:40:51;;;;;;;6.10;5.50;;;15.40;99.90;;;;;;5009726;28;20465;-59
2021/09/29 07:43:18;;;;;;;9.07;7.23;;;15.40;99.90;;;;;;5011857;28;20458;-59
2021/09/29 07:45:46;;;;;;;8.03;7.00;;;15.20;99.90;;;;;;5011988;28;20449;-59
2021/09/29 07:48:13;;;;;;;7.07;6.33;;;15.20;99.90;;;;;;5011149;28;20499;-59
2021/09/29 07:50:40;;;;;;;9.00;6.90;;;15.30;99.90;;;;;;5011072;28;21069;-59
2021/09/29 07:53:08;;;;;;;9.93;6.87;;;15.40;99.90;;;;;;5005782;28;20504;-59
2021/09/29 07:55:35;;;;;;;10.27;7.73;;;15.40;99.90;;;;;;4992225;28;20968;-59
2021/09/29 07:58:02;;;;;;;10.07;8.10;;;15.30;99.90;;;;;;4992367;28;20450;-59
2021/09/29 08:00:30;;;;;;;10.00;8.27;;;15.20;99.90;;;;;;4991750;28;20533;-60
2021/09/29 08:02:58;;;;;;;16.97;10.00;;;15.40;99.90;;;;;;4992188;28;20450;-60
2021/09/29 08:05:26;;;;;;;27.17;13.17;;;15.40;99.90;;;;;;4999403;28;20442;-60
2021/09/29 08:07:52;;;;;;;20.73;12.50;;;15.50;99.90;;;;;;5006342;28;20454;-59
2021/09/29 08:10:21;;;;;;;17.10;10.80;;;15.60;99.90;;;;;;4992029;28;20489;-61
2021/09/29 08:12:48;;;;;;;18.03;10.00;;;15.70;99.90;;;;;;5011776;28;20507;-59
2021/09/29 08:15:15;;;;;;;16.07;10.73;;;15.90;99.90;;;;;;5010997;28;20445;-59
2021/09/29 08:17:44;;;;;;;14.73;8.50;;;16.00;99.90;;;;;;5010931;28;20488;-59
2021/09/29 08:20:15;;;;;;;13.10;7.77;;;16.20;99.90;;;;;;5011260;28;20468;-58
2021/09/29 08:22:45;;;;;;;13.13;7.53;;;16.50;99.90;;;;;;5011689;28;20446;-59
2021/09/29 08:25:22;;;;;;;10.20;5.77;;;16.80;99.90;;;;;;5002938;28;20455;-59
2021/09/29 08:30:41;;;;;;;7.73;5.60;;;17.80;99.90;;;;;;5010853;28;20847;-59
2021/09/29 08:33:14;;;;;;;3.40;3.10;;;18.80;99.90;;;;;;5011428;28;20508;-57
2021/09/29 08:35:51;;;;;;;2.67;1.80;;;19.70;99.90;;;;;;5001416;28;20462;-59
2021/09/29 08:38:27;;;;;;;3.03;1.47;;;20.40;99.90;;;;;;4991879;28;20514;-59
2021/09/29 08:41:01;;;;;;;1.97;1.50;;;20.50;99.90;;;;;;4994871;28;20473;-58
2021/09/29 08:43:38;;;;;;;1.97;1.77;;;20.30;99.90;;;;;;5011172;28;20457;-58
2021/09/29 08:46:08;;;;;;;1.73;1.53;;;19.90;99.90;;;;;;5000176;28;20445;-59
2021/09/29 08:48:42;;;;;;;2.33;2.13;;;19.60;99.90;;;;;;5011207;28;20464;-59
2021/09/29 08:54:18;;;;;;;3.30;2.20;;;19.10;99.90;;;;;;5088732;27;20516;-59
2021/09/29 09:16:17;;;;;;;2.10;1.90;;;21.70;99.90;;;;;;5065058;28;20473;-59
2021/09/29 09:18:48;;;;;;;2.50;2.20;;;21.60;99.90;;;;;;5068534;28;20446;-59
2021/09/29 09:21:17;;;;;;;2.83;2.40;;;21.40;99.90;;;;;;5068342;28;20848;-59
2021/09/29 09:23:46;;;;;;;2.53;2.03;;;21.00;99.90;;;;;;5058858;28;20480;-59
2021/09/29 09:26:17;;;;;;;1.90;1.80;;;20.70;99.90;;;;;;5048563;28;20447;-59
2021/09/29 09:28:45;;;;;;;2.33;1.90;;;20.40;99.90;;;;;;5052276;28;20455;-60
2021/09/29 09:31:14;;;;;;;2.93;1.80;;;20.50;99.90;;;;;;5048204;28;20468;-59
2021/09/29 09:33:50;;;;;;;1.47;1.30;;;20.60;99.90;;;;;;5048427;28;20900;-59
2021/09/29 09:36:36;;;;;;;1.90;1.60;;;20.70;99.90;;;;;;5048378;28;20455;-59
2021/09/29 09:39:08;;;;;;;5.50;1.87;;;20.60;99.90;;;;;;5056541;28;20860;-60
2021/09/29 09:41:37;;;;;;;2.90;1.57;;;20.40;99.90;;;;;;5067174;28;20542;-60
2021/09/29 09:44:06;;;;;;;2.80;2.20;;;20.40;99.90;;;;;;5062920;28;20488;-60
2021/09/29 09:46:33;;;;;;;1.93;1.83;;;21.00;99.90;;;;;;5066325;28;20622;-60
2021/09/29 09:49:03;;;;;;;2.00;1.80;;;21.70;99.90;;;;;;5067968;28;20807;-60
2021/09/29 09:51:31;;;;;;;4.03;2.20;;;22.30;99.90;;;;;;5067105;28;20538;-60
2021/09/29 09:53:58;;;;;;;2.40;2.13;;;22.80;99.90;;;;;;5065874;28;20482;-59
2021/09/29 09:56:29;;;;;;;2.40;2.20;;;23.00;99.90;;;;;;5065775;28;20455;-59
2021/09/29 09:58:58;;;;;;;2.70;2.40;;;23.00;99.90;;;;;;5057512;28;20894;-60
2021/09/29 10:01:28;;;;;;;2.27;1.47;;;23.30;99.90;;;;;;5070458;22;20492;-55
2021/09/29 10:03:55;;;;;;;1.40;1.10;;;23.80;99.90;;;;;;5043164;28;20532;-55
2021/09/29 10:06:24;;;;;;;1.40;1.30;;;23.50;99.90;;;;;;5026199;28;20499;-55
2021/09/29 10:08:58;;;;;;;2.10;1.50;;;24.00;99.90;;;;;;5029707;28;20445;-55
2021/09/29 10:11:28;;;;;;;1.50;1.40;;;24.20;99.90;;;;;;5024661;28;20496;-55
2021/09/29 10:28:18;;;;;;;1.30;1.20;;;24.70;99.90;;;;;;5033533;28;20443;-55
2021/09/29 10:31:09;;;;;;;1.70;1.30;;;24.30;99.90;;;;;;5033762;28;20499;-55
2021/09/29 10:33:41;;;;;;;2.53;1.20;;;23.80;99.90;;;;;;5023633;28;20485;-55
2021/09/29 10:36:20;;;;;;;1.20;1.10;;;24.00;99.90;;;;;;5034034;28;20452;-55
2021/09/29 10:41:52;;;;;;;1.83;1.30;;;24.00;99.90;;;;;;5033183;28;20909;-55
2021/09/29 10:44:23;;;;;;;1.57;1.30;;;23.90;99.90;;;;;;5033848;28;20448;-55
2021/09/29 10:47:02;;;;;;;1.30;1.20;;;23.70;99.90;;;;;;5033839;28;20868;-54
2021/09/29 11:06:29;;;;;;;3.97;1.40;;;22.20;99.90;;;;;;5033424;28;20950;-56
2021/09/29 11:09:35;;;;;;;2.37;1.20;;;22.20;99.90;;;;;;5032796;28;20440;-56
2021/09/29 11:31:46;;;;;;;1.50;1.27;;;22.60;99.90;;;;;;5032311;28;20443;-56
2021/09/29 11:34:18;;;;;;;1.60;1.33;;;22.20;99.90;;;;;;5032850;28;21009;-55
2021/09/29 11:39:45;;;;;;;2.40;1.60;;;22.40;99.90;;;;;;5023640;28;20448;-55
2021/09/29 12:08:00;;;;;;;2.13;1.50;;;22.40;99.90;;;;;;5032311;28;20524;-55
2021/09/29 12:10:32;;;;;;;3.13;1.50;;;22.60;99.90;;;;;;5031962;28;20498;-55
2021/09/29 12:13:04;;;;;;;1.43;1.00;;;22.40;99.90;;;;;;5031732;28;20538;-55
2021/09/29 12:15:31;;;;;;;2.43;1.40;;;22.00;99.90;;;;;;5032413;28;20459;-55
2021/09/29 12:17:58;;;;;;;2.10;1.10;;;21.90;99.90;;;;;;5032059;28;20491;-55
2021/09/29 12:20:27;;;;;;;1.90;1.60;;;21.70;99.90;;;;;;5031791;28;20473;-55
2021/09/29 12:22:58;;;;;;;2.20;1.37;;;21.50;99.90;;;;;;5030815;28;20457;-55
2021/09/29 12:25:35;;;;;;;1.70;1.40;;;21.40;99.90;;;;;;5032022;28;20832;-55
2021/09/29 12:28:16;;;;;;;1.90;1.43;;;20.80;99.90;;;;;;5031981;28;20462;-55
2021/09/29 12:30:47;;;;;;;1.70;1.40;;;20.30;99.90;;;;;;5051672;28;20468;-55
2021/09/29 12:33:18;;;;;;;1.97;1.47;;;19.90;99.90;;;;;;5051770;28;20483;-55
2021/09/29 12:35:51;;;;;;;1.63;1.40;;;19.90;99.90;;;;;;5044552;28;20460;-55
2021/09/29 12:38:19;;;;;;;2.07;1.23;;;19.60;99.90;;;;;;5031022;28;21001;-55
2021/09/29 12:40:50;;;;;;;4.07;1.07;;;19.50;99.90;;;;;;5025815;28;20983;-55
2021/09/29 12:43:19;;;;;;;1.77;1.50;;;19.50;99.90;;;;;;5028887;28;20475;-55
2021/09/29 12:45:48;;;;;;;3.53;1.63;;;19.50;99.90;;;;;;5031759;28;20445;-55
2021/09/29 12:48:18;;;;;;;7.93;1.57;;;19.50;99.90;;;;;;5031365;28;20883;-55
2021/09/29 12:50:49;;;;;;;1.50;1.40;;;19.40;99.90;;;;;;5031638;28;20475;-55
2021/09/29 12:53:20;;;;;;;2.70;1.30;;;19.10;99.90;;;;;;5031744;28;20480;-55
2021/09/29 12:55:54;;;;;;;3.63;1.40;;;19.40;99.90;;;;;;5031891;28;20540;-55
2021/09/29 12:58:21;;;;;;;1.70;1.60;;;19.40;99.90;;;;;;5031678;28;20450;-55
2021/09/29 13:00:48;;;;;;;2.70;1.50;;;19.40;99.90;;;;;;5031377;28;20480;-55
2021/09/29 13:03:15;;;;;;;2.20;1.50;;;19.30;99.90;;;;;;5030369;28;20453;-55
2021/09/29 13:05:42;;;;;;;2.60;1.50;;;19.20;99.90;;;;;;5031440;28;21021;-55
2021/09/29 13:08:09;;;;;;;2.40;1.27;;;19.30;99.90;;;;;;5031655;28;20876;-56
2021/09/29 13:10:37;;;;;;;2.63;1.20;;;19.50;99.90;;;;;;5030882;28;20472;-57
2021/09/29 13:13:06;;;;;;;1.30;1.20;;;19.60;99.90;;;;;;5031541;28;20534;-56
2021/09/29 13:15:39;;;;;;;2.03;1.50;;;19.40;99.90;;;;;;5031415;28;20934;-56
2021/09/29 13:18:06;;;;;;;2.00;1.20;;;19.60;99.90;;;;;;5031588;28;20459;-55
2021/09/29 13:20:34;;;;;;;2.40;1.20;;;19.60;99.90;;;;;;5029963;28;20830;-56
2021/09/29 13:23:06;;;;;;;3.33;1.50;;;19.60;99.90;;;;;;5031364;28;20436;-56
2021/09/29 13:36:38;;;;;;;2.10;1.60;;;20.00;99.90;;;;;;5011637;28;21030;-56
2021/09/29 13:39:08;;;;;;;1.63;1.30;;;19.90;99.90;;;;;;5022544;28;20521;-56
2021/09/29 13:41:36;;;;;;;1.70;1.60;;;19.90;99.90;;;;;;5034690;28;21017;-56
2021/09/29 13:44:05;;;;;;;2.33;1.60;;;19.90;99.90;;;;;;5040622;28;20444;-56
2021/09/29 13:46:32;;;;;;;1.43;1.33;;;20.10;99.90;;;;;;5055015;28;20444;-56
2021/09/29 13:49:01;;;;;;;1.83;1.30;;;20.00;99.90;;;;;;5054759;28;20538;-57
2021/09/29 13:51:30;;;;;;;1.67;1.57;;;19.80;99.90;;;;;;5054598;28;20475;-56
2021/09/29 13:53:58;;;;;;;1.77;1.40;;;20.00;99.90;;;;;;5037955;28;20503;-56
2021/09/29 13:56:29;;;;;;;1.60;1.50;;;20.10;99.90;;;;;;5034517;28;20460;-55
2021/09/29 13:59:14;;;;;;;1.57;1.40;;;20.30;99.90;;;;;;5034571;28;20448;-55
2021/09/29 14:29:22;;;;;;;1.80;1.70;;;20.00;99.90;;;;;;5034216;28;21019;-56
2021/09/29 14:32:03;;;;;;;1.93;1.83;;;20.10;99.90;;;;;;5033872;28;20455;-55
2021/09/29 14:34:32;;;;;;;1.53;1.40;;;20.10;99.90;;;;;;5033638;28;20488;-55
2021/09/29 14:37:01;;;;;;;1.40;1.30;;;20.10;99.90;;;;;;5033886;28;20510;-55
2021/09/29 14:39:28;;;;;;;5.47;1.80;;;20.20;99.90;;;;;;5034008;28;20472;-55
2021/09/29 14:41:55;;;;;;;2.27;1.70;;;20.20;99.90;;;;;;5033776;28;20866;-55
2021/09/29 14:44:23;;;;;;;2.07;1.43;;;20.20;99.90;;;;;;5033750;28;20453;-55
2021/09/29 14:46:50;;;;;;;1.80;1.40;;;20.40;99.90;;;;;;5033678;28;20452;-55
2021/09/29 14:49:17;;;;;;;5.60;2.90;;;20.40;99.90;;;;;;5033631;28;20511;-55
2021/09/29 14:51:45;;;;;;;2.07;1.10;;;20.40;99.90;;;;;;5033473;28;20453;-56
2021/09/29 14:54:12;;;;;;;3.03;1.10;;;20.30;99.90;;;;;;5033512;28;20542;-55
2021/09/29 14:56:39;;;;;;;2.80;1.20;;;20.40;99.90;;;;;;5022501;28;20445;-55
2021/09/29 14:59:06;;;;;;;1.03;1.03;;;20.60;99.90;;;;;;5032230;28;21044;-55
2021/09/29 15:01:33;;;;;;;1.97;1.30;;;20.60;99.90;;;;;;5032820;28;20986;-55
2021/09/29 15:04:00;;;;;;;3.17;1.30;;;20.60;99.90;;;;;;5035002;28;20495;-55
2021/09/29 15:06:27;;;;;;;1.40;1.30;;;20.70;99.90;;;;;;5053424;28;20451;-55
2021/09/29 15:08:55;;;;;;;1.83;1.20;;;20.50;99.90;;;;;;5044212;28;21016;-55
2021/09/29 15:11:23;;;;;;;1.40;1.30;;;20.40;99.90;;;;;;5033161;28;21044;-55
2021/09/29 15:13:52;;;;;;;3.10;1.10;;;20.20;99.90;;;;;;5033217;28;21019;-54
2021/09/29 15:16:24;;;;;;;2.97;1.03;;;20.20;99.90;;;;;;5033259;28;20938;-54